sensor_id;sensor_type;location;lat;lon;timestamp;pressure;altitude;pressure_sealevel;temperature;humidity
20616;BME280;10467;42.338;23.552;2022-07-10T00:01:14;90880.13;;;12.88;100.00
20616;BME280;10467;42.338;23.552;2022-07-10T00:03:39;90882.22;;;12.82;100.00
20616;BME280;10467;42.338;23.552;2022-07-10T00:06:04;90891.34;;;12.73;100.00
20616;BME280;10467;42.338;23.552;2022-07-10T00:08:30;90883.56;;;12.59;100.00
20616;BME280;10467;42.338;23.552;2022-07-10T00:10:55;90886.88;;;12.56;100.00
20616;BME280;10467;42.338;23.552;2022-07-10T00:13:21;90881.88;;;12.54;100.00
20616;BME280;10467;42.338;23.552;2022-07-10T00:15:46;90888.13;;;12.58;100.00
20616;BME280;10467;42.338;23.552;2022-07-10T00:18:12;90883.41;;;12.64;100.00
20616;BME280;10467;42.338;23.552;2022-07-10T00:20:37;90886.88;;;12.65;100.00
20616;BME280;10467;42.338;23.552;2022-07-10T00:23:02;90879.47;;;12.62;100.00
20616;BME280;10467;42.338;23.552;2022-07-10T00:25:28;90881.13;;;12.45;100.00
20616;BME280;10467;42.338;23.552;2022-07-10T00:27:54;90867.22;;;12.31;100.00
20616;BME280;10467;42.338;23.552;2022-07-10T00:30:19;90878.06;;;12.26;100.00
20616;BME280;10467;42.338;23.552;2022-07-10T00:32:44;90873.50;;;12.26;100.00
20616;BME280;10467;42.338;23.552;2022-07-10T00:35:09;90871.75;;;12.30;100.00
20616;BME280;10467;42.338;23.552;2022-07-10T00:37:35;90870.84;;;12.26;100.00
20616;BME280;10467;42.338;23.552;2022-07-10T00:40:01;90878.50;;;12.37;100.00
20616;BME280;10467;42.338;23.552;2022-07-10T00:42:27;90870.97;;;12.30;100.00
20616;BME280;10467;42.338;23.552;2022-07-10T00:44:52;90876.06;;;12.14;100.00
20616;BME280;10467;42.338;23.552;2022-07-10T00:47:18;90869.06;;;12.01;100.00
20616;BME280;10467;42.338;23.552;2022-07-10T00:49:45;90872.50;;;12.02;100.00
20616;BME280;10467;42.338;23.552;2022-07-10T00:52:11;90871.09;;;11.95;100.00
20616;BME280;10467;42.338;23.552;2022-07-10T00:54:37;90862.34;;;11.86;100.00
20616;BME280;10467;42.338;23.552;2022-07-10T00:57:05;90865.00;;;11.78;100.00
20616;BME280;10467;42.338;23.552;2022-07-10T00:59:31;90846.84;;;11.71;100.00
20616;BME280;10467;42.338;23.552;2022-07-10T01:01:57;90855.94;;;11.70;100.00
20616;BME280;10467;42.338;23.552;2022-07-10T01:04:22;90855.28;;;11.64;100.00
20616;BME280;10467;42.338;23.552;2022-07-10T01:06:47;90857.34;;;11.59;100.00
20616;BME280;10467;42.338;23.552;2022-07-10T01:09:13;90851.56;;;11.48;100.00
20616;BME280;10467;42.338;23.552;2022-07-10T01:11:38;90855.03;;;11.40;100.00
20616;BME280;10467;42.338;23.552;2022-07-10T01:14:04;90854.88;;;11.28;100.00
20616;BME280;10467;42.338;23.552;2022-07-10T01:16:30;90848.63;;;11.06;100.00
20616;BME280;10467;42.338;23.552;2022-07-10T01:18:56;90848.75;;;11.01;100.00
20616;BME280;10467;42.338;23.552;2022-07-10T01:21:28;90848.44;;;10.94;100.00
20616;BME280;10467;42.338;23.552;2022-07-10T01:23:54;90844.97;;;10.85;100.00
20616;BME280;10467;42.338;23.552;2022-07-10T01:26:20;90847.47;;;10.73;100.00
20616;BME280;10467;42.338;23.552;2022-07-10T01:28:48;90837.00;;;10.76;100.00
20616;BME280;10467;42.338;23.552;2022-07-10T01:31:13;90829.03;;;10.76;100.00
20616;BME280;10467;42.338;23.552;2022-07-10T01:33:39;90835.75;;;10.83;100.00
20616;BME280;10467;42.338;23.552;2022-07-10T01:36:04;90820.41;;;10.88;100.00
20616;BME280;10467;42.338;23.552;2022-07-10T01:38:29;90815.38;;;10.87;100.00
20616;BME280;10467;42.338;23.552;2022-07-10T01:40:55;90818.50;;;10.89;100.00
20616;BME280;10467;42.338;23.552;2022-07-10T01:43:20;90817.13;;;11.00;100.00
20616;BME280;10467;42.338;23.552;2022-07-10T01:45:45;90814.31;;;10.96;100.00
20616;BME280;10467;42.338;23.552;2022-07-10T01:48:11;90811.03;;;10.91;100.00
20616;BME280;10467;42.338;23.552;2022-07-10T01:50:36;90814.47;;;10.91;100.00
20616;BME280;10467;42.338;23.552;2022-07-10T01:53:01;90812.56;;;11.00;100.00
20616;BME280;10467;42.338;23.552;2022-07-10T01:55:31;90806.63;;;11.12;100.00
20616;BME280;10467;42.338;23.552;2022-07-10T01:57:56;90804.13;;;11.24;100.00
20616;BME280;10467;42.338;23.552;2022-07-10T02:00:22;90801.28;;;11.38;100.00
20616;BME280;10467;42.338;23.552;2022-07-10T02:02:47;90795.16;;;11.46;100.00
20616;BME280;10467;42.338;23.552;2022-07-10T02:05:33;90794.03;;;11.56;100.00
20616;BME280;10467;42.338;23.552;2022-07-10T02:07:58;90791.06;;;11.57;100.00
20616;BME280;10467;42.338;23.552;2022-07-10T02:10:24;90785.72;;;11.57;100.00
20616;BME280;10467;42.338;23.552;2022-07-10T02:12:50;90798.59;;;11.55;100.00
20616;BME280;10467;42.338;23.552;2022-07-10T02:15:15;90784.31;;;11.51;100.00
20616;BME280;10467;42.338;23.552;2022-07-10T02:17:40;90788.41;;;11.49;100.00
20616;BME280;10467;42.338;23.552;2022-07-10T02:20:06;90787.78;;;11.43;100.00
20616;BME280;10467;42.338;23.552;2022-07-10T02:22:31;90793.63;;;11.36;100.00
20616;BME280;10467;42.338;23.552;2022-07-10T02:24:57;90783.91;;;11.32;100.00
20616;BME280;10467;42.338;23.552;2022-07-10T02:27:22;90792.53;;;11.29;100.00
20616;BME280;10467;42.338;23.552;2022-07-10T02:29:47;90795.97;;;11.29;100.00
20616;BME280;10467;42.338;23.552;2022-07-10T02:32:13;90801.91;;;11.18;100.00
20616;BME280;10467;42.338;23.552;2022-07-10T02:34:38;90796.75;;;11.13;100.00
20616;BME280;10467;42.338;23.552;2022-07-10T02:37:03;90799.91;;;11.06;100.00
20616;BME280;10467;42.338;23.552;2022-07-10T02:39:29;90804.13;;;10.90;100.00
20616;BME280;10467;42.338;23.552;2022-07-10T02:41:54;90812.56;;;10.83;100.00
20616;BME280;10467;42.338;23.552;2022-07-10T02:44:19;90811.47;;;10.67;100.00
20616;BME280;10467;42.338;23.552;2022-07-10T02:46:45;90818.19;;;10.64;100.00
20616;BME280;10467;42.338;23.552;2022-07-10T02:49:10;90811.63;;;10.62;100.00
20616;BME280;10467;42.338;23.552;2022-07-10T02:51:36;90818.66;;;10.58;100.00
20616;BME280;10467;42.338;23.552;2022-07-10T02:54:01;90818.16;;;10.47;100.00
20616;BME280;10467;42.338;23.552;2022-07-10T02:56:27;90816.91;;;10.44;100.00
20616;BME280;10467;42.338;23.552;2022-07-10T02:58:52;90821.91;;;10.55;100.00
20616;BME280;10467;42.338;23.552;2022-07-10T03:01:18;90829.00;;;10.68;100.00
20616;BME280;10467;42.338;23.552;2022-07-10T03:03:43;90838.09;;;10.75;100.00
20616;BME280;10467;42.338;23.552;2022-07-10T03:06:09;90839.66;;;10.76;100.00
20616;BME280;10467;42.338;23.552;2022-07-10T03:08:34;90832.44;;;10.86;100.00
20616;BME280;10467;42.338;23.552;2022-07-10T03:11:00;90835.59;;;10.96;100.00
20616;BME280;10467;42.338;23.552;2022-07-10T03:13:25;90843.88;;;11.03;100.00
20616;BME280;10467;42.338;23.552;2022-07-10T03:15:53;90834.03;;;11.13;100.00
20616;BME280;10467;42.338;23.552;2022-07-10T03:18:18;90837.00;;;11.20;100.00
20616;BME280;10467;42.338;23.552;2022-07-10T03:20:43;90838.25;;;11.39;100.00
20616;BME280;10467;42.338;23.552;2022-07-10T03:23:09;90843.25;;;11.50;100.00
20616;BME280;10467;42.338;23.552;2022-07-10T03:25:34;90835.72;;;11.60;100.00
20616;BME280;10467;42.338;23.552;2022-07-10T03:27:59;90830.84;;;11.80;100.00
20616;BME280;10467;42.338;23.552;2022-07-10T03:30:25;90837.53;;;11.94;100.00
20616;BME280;10467;42.338;23.552;2022-07-10T03:32:50;90836.75;;;12.03;100.00
20616;BME280;10467;42.338;23.552;2022-07-10T03:35:15;90831.38;;;12.11;100.00
20616;BME280;10467;42.338;23.552;2022-07-10T03:37:41;90828.16;;;12.26;100.00
20616;BME280;10467;42.338;23.552;2022-07-10T03:40:06;90819.50;;;12.38;100.00
20616;BME280;10467;42.338;23.552;2022-07-10T03:42:32;90812.06;;;12.44;100.00
20616;BME280;10467;42.338;23.552;2022-07-10T03:44:57;90810.50;;;12.43;100.00
20616;BME280;10467;42.338;23.552;2022-07-10T03:47:22;90808.81;;;12.38;100.00
20616;BME280;10467;42.338;23.552;2022-07-10T03:49:47;90807.38;;;12.41;100.00
20616;BME280;10467;42.338;23.552;2022-07-10T03:52:13;90807.16;;;12.54;100.00
20616;BME280;10467;42.338;23.552;2022-07-10T03:54:38;90810.69;;;12.67;100.00
20616;BME280;10467;42.338;23.552;2022-07-10T03:57:04;90821.47;;;12.79;100.00
20616;BME280;10467;42.338;23.552;2022-07-10T03:59:48;90813.06;;;12.89;100.00
20616;BME280;10467;42.338;23.552;2022-07-10T04:02:14;90807.88;;;13.14;100.00
20616;BME280;10467;42.338;23.552;2022-07-10T04:04:39;90815.66;;;13.40;100.00
20616;BME280;10467;42.338;23.552;2022-07-10T04:07:04;90812.19;;;13.27;100.00
20616;BME280;10467;42.338;23.552;2022-07-10T04:09:31;90814.88;;;13.39;100.00
20616;BME280;10467;42.338;23.552;2022-07-10T04:11:56;90821.19;;;13.56;100.00
20616;BME280;10467;42.338;23.552;2022-07-10T04:14:21;90809.88;;;13.59;100.00
20616;BME280;10467;42.338;23.552;2022-07-10T04:16:47;90819.38;;;13.81;100.00
20616;BME280;10467;42.338;23.552;2022-07-10T04:19:12;90818.06;;;13.87;100.00
20616;BME280;10467;42.338;23.552;2022-07-10T04:21:37;90819.16;;;13.73;100.00
20616;BME280;10467;42.338;23.552;2022-07-10T04:24:03;90820.13;;;13.69;100.00
20616;BME280;10467;42.338;23.552;2022-07-10T04:26:28;90827.28;;;13.77;100.00
20616;BME280;10467;42.338;23.552;2022-07-10T04:28:54;90823.13;;;14.13;100.00
20616;BME280;10467;42.338;23.552;2022-07-10T04:31:19;90814.25;;;14.21;100.00
20616;BME280;10467;42.338;23.552;2022-07-10T04:33:44;90809.13;;;14.77;100.00
20616;BME280;10467;42.338;23.552;2022-07-10T04:36:10;90810.19;;;15.12;100.00
20616;BME280;10467;42.338;23.552;2022-07-10T04:38:35;90805.13;;;14.71;100.00
20616;BME280;10467;42.338;23.552;2022-07-10T04:41:00;90811.34;;;14.99;100.00
20616;BME280;10467;42.338;23.552;2022-07-10T04:43:26;90803.53;;;15.06;100.00
20616;BME280;10467;42.338;23.552;2022-07-10T04:45:51;90805.53;;;14.97;100.00
20616;BME280;10467;42.338;23.552;2022-07-10T04:48:17;90799.22;;;14.65;100.00
20616;BME280;10467;42.338;23.552;2022-07-10T04:50:42;90811.50;;;14.54;100.00
20616;BME280;10467;42.338;23.552;2022-07-10T04:53:07;90803.13;;;14.55;100.00
20616;BME280;10467;42.338;23.552;2022-07-10T04:55:33;90813.28;;;14.62;100.00
20616;BME280;10467;42.338;23.552;2022-07-10T04:57:58;90799.44;;;14.72;100.00
20616;BME280;10467;42.338;23.552;2022-07-10T05:00:24;90805.75;;;15.04;100.00
20616;BME280;10467;42.338;23.552;2022-07-10T05:02:49;90793.13;;;15.45;100.00
20616;BME280;10467;42.338;23.552;2022-07-10T05:05:15;90798.34;;;15.66;100.00
20616;BME280;10467;42.338;23.552;2022-07-10T05:07:40;90798.94;;;16.18;100.00
20616;BME280;10467;42.338;23.552;2022-07-10T05:10:05;90803.69;;;16.25;100.00
20616;BME280;10467;42.338;23.552;2022-07-10T05:12:31;90801.97;;;16.48;100.00
20616;BME280;10467;42.338;23.552;2022-07-10T05:14:56;90798.25;;;16.53;100.00
20616;BME280;10467;42.338;23.552;2022-07-10T05:17:22;90796.44;;;16.41;100.00
20616;BME280;10467;42.338;23.552;2022-07-10T05:19:48;90798.31;;;16.41;100.00
20616;BME280;10467;42.338;23.552;2022-07-10T05:22:13;90798.59;;;16.52;100.00
20616;BME280;10467;42.338;23.552;2022-07-10T05:24:39;90788.13;;;16.62;100.00
20616;BME280;10467;42.338;23.552;2022-07-10T05:27:04;90787.50;;;16.85;100.00
20616;BME280;10467;42.338;23.552;2022-07-10T05:29:30;90788.13;;;16.78;100.00
20616;BME280;10467;42.338;23.552;2022-07-10T05:31:55;90793.84;;;16.61;100.00
20616;BME280;10467;42.338;23.552;2022-07-10T05:34:20;90785.25;;;16.55;100.00
20616;BME280;10467;42.338;23.552;2022-07-10T05:36:46;90783.38;;;17.06;100.00
20616;BME280;10467;42.338;23.552;2022-07-10T05:39:11;90788.88;;;17.49;100.00
20616;BME280;10467;42.338;23.552;2022-07-10T05:41:36;90788.38;;;17.62;100.00
20616;BME280;10467;42.338;23.552;2022-07-10T05:44:02;90796.44;;;17.24;100.00
20616;BME280;10467;42.338;23.552;2022-07-10T05:46:27;90787.03;;;16.98;100.00
20616;BME280;10467;42.338;23.552;2022-07-10T05:48:53;90786.47;;;16.89;100.00
20616;BME280;10467;42.338;23.552;2022-07-10T05:51:18;90778.50;;;16.77;100.00
20616;BME280;10467;42.338;23.552;2022-07-10T05:53:43;90778.41;;;16.89;100.00
20616;BME280;10467;42.338;23.552;2022-07-10T05:56:09;90781.97;;;17.13;100.00
20616;BME280;10467;42.338;23.552;2022-07-10T05:58:34;90786.88;;;18.04;100.00
20616;BME280;10467;42.338;23.552;2022-07-10T06:01:00;90787.38;;;18.55;100.00
20616;BME280;10467;42.338;23.552;2022-07-10T06:03:25;90785.91;;;18.80;100.00
20616;BME280;10467;42.338;23.552;2022-07-10T06:05:51;90791.53;;;18.72;98.22
20616;BME280;10467;42.338;23.552;2022-07-10T06:08:16;90787.19;;;18.44;100.00
20616;BME280;10467;42.338;23.552;2022-07-10T06:10:42;90791.53;;;18.49;100.00
20616;BME280;10467;42.338;23.552;2022-07-10T06:13:09;90780.47;;;19.33;93.95
20616;BME280;10467;42.338;23.552;2022-07-10T06:15:34;90788.31;;;19.72;86.81
20616;BME280;10467;42.338;23.552;2022-07-10T06:18:00;90786.50;;;19.80;85.60
20616;BME280;10467;42.338;23.552;2022-07-10T06:20:25;90781.50;;;21.04;77.08
20616;BME280;10467;42.338;23.552;2022-07-10T06:22:51;90780.13;;;21.97;72.79
20616;BME280;10467;42.338;23.552;2022-07-10T06:25:16;90781.75;;;22.19;69.46
20616;BME280;10467;42.338;23.552;2022-07-10T06:27:41;90793.91;;;23.04;66.36
20616;BME280;10467;42.338;23.552;2022-07-10T06:30:07;90788.47;;;23.04;64.75
20616;BME280;10467;42.338;23.552;2022-07-10T06:32:32;90781.44;;;22.56;65.37
20616;BME280;10467;42.338;23.552;2022-07-10T06:34:58;90788.44;;;22.75;65.76
20616;BME280;10467;42.338;23.552;2022-07-10T06:37:23;90789.59;;;23.49;64.37
20616;BME280;10467;42.338;23.552;2022-07-10T06:39:49;90793.69;;;24.14;61.94
20616;BME280;10467;42.338;23.552;2022-07-10T06:42:14;90778.88;;;24.26;61.35
20616;BME280;10467;42.338;23.552;2022-07-10T06:44:41;90787.97;;;23.90;61.42
20616;BME280;10467;42.338;23.552;2022-07-10T06:47:06;90790.75;;;23.69;61.42
20616;BME280;10467;42.338;23.552;2022-07-10T06:49:51;90787.22;;;26.96;55.83
20616;BME280;10467;42.338;23.552;2022-07-10T06:52:17;90785.28;;;29.26;48.60
20616;BME280;10467;42.338;23.552;2022-07-10T06:54:42;90789.63;;;31.29;44.77
20616;BME280;10467;42.338;23.552;2022-07-10T06:57:08;90793.88;;;33.25;39.96
20616;BME280;10467;42.338;23.552;2022-07-10T06:59:34;90788.38;;;32.94;39.57
20616;BME280;10467;42.338;23.552;2022-07-10T07:01:59;90783.09;;;33.40;40.16
20616;BME280;10467;42.338;23.552;2022-07-10T07:04:25;90782.00;;;35.99;35.61
20616;BME280;10467;42.338;23.552;2022-07-10T07:06:50;90784.50;;;37.13;32.54
20616;BME280;10467;42.338;23.552;2022-07-10T07:09:15;90775.69;;;36.47;35.00
20616;BME280;10467;42.338;23.552;2022-07-10T07:11:40;90780.56;;;38.55;31.15
20616;BME280;10467;42.338;23.552;2022-07-10T07:14:06;90773.19;;;36.87;33.09
20616;BME280;10467;42.338;23.552;2022-07-10T07:16:31;90766.25;;;33.97;36.33
20616;BME280;10467;42.338;23.552;2022-07-10T07:19:22;90774.56;;;32.07;38.33
20616;BME280;10467;42.338;23.552;2022-07-10T07:21:56;90765.88;;;30.14;41.11
20616;BME280;10467;42.338;23.552;2022-07-10T07:24:40;90767.75;;;28.11;44.02
20616;BME280;10467;42.338;23.552;2022-07-10T07:27:05;90768.28;;;27.12;45.93
20616;BME280;10467;42.338;23.552;2022-07-10T07:29:31;90773.63;;;26.05;49.19
20616;BME280;10467;42.338;23.552;2022-07-10T07:31:56;90780.53;;;24.05;53.87
20616;BME280;10467;42.338;23.552;2022-07-10T07:34:21;90768.28;;;22.44;58.96
20616;BME280;10467;42.338;23.552;2022-07-10T07:36:47;90766.50;;;21.79;65.20
20616;BME280;10467;42.338;23.552;2022-07-10T07:39:12;90770.28;;;21.60;66.74
20616;BME280;10467;42.338;23.552;2022-07-10T07:41:37;90768.16;;;21.29;69.24
20616;BME280;10467;42.338;23.552;2022-07-10T07:44:02;90770.63;;;21.48;67.89
20616;BME280;10467;42.338;23.552;2022-07-10T07:46:28;90763.69;;;21.58;69.58
20616;BME280;10467;42.338;23.552;2022-07-10T07:48:53;90762.59;;;21.76;68.63
20616;BME280;10467;42.338;23.552;2022-07-10T07:51:18;90769.84;;;22.66;65.81
20616;BME280;10467;42.338;23.552;2022-07-10T07:53:44;90763.69;;;24.98;60.04
20616;BME280;10467;42.338;23.552;2022-07-10T07:56:09;90768.88;;;29.58;49.27
20616;BME280;10467;42.338;23.552;2022-07-10T07:58:34;90762.88;;;30.92;44.49
20616;BME280;10467;42.338;23.552;2022-07-10T08:01:00;90773.97;;;32.12;41.10
20616;BME280;10467;42.338;23.552;2022-07-10T08:03:25;90777.22;;;32.54;40.79
20616;BME280;10467;42.338;23.552;2022-07-10T08:05:51;90770.16;;;33.68;38.66
20616;BME280;10467;42.338;23.552;2022-07-10T08:08:16;90772.31;;;31.80;39.36
20616;BME280;10467;42.338;23.552;2022-07-10T08:10:42;90769.72;;;30.58;40.65
20616;BME280;10467;42.338;23.552;2022-07-10T08:13:07;90764.16;;;29.59;41.77
20616;BME280;10467;42.338;23.552;2022-07-10T08:15:32;90769.84;;;28.03;45.04
20616;BME280;10467;42.338;23.552;2022-07-10T08:18:00;90775.78;;;25.45;50.71
20616;BME280;10467;42.338;23.552;2022-07-10T08:20:26;90777.63;;;23.04;57.72
20616;BME280;10467;42.338;23.552;2022-07-10T08:22:51;90773.63;;;22.19;62.10
20616;BME280;10467;42.338;23.552;2022-07-10T08:25:18;90767.94;;;21.55;64.23
20616;BME280;10467;42.338;23.552;2022-07-10T08:27:44;90772.25;;;21.08;68.10
20616;BME280;10467;42.338;23.552;2022-07-10T08:30:09;90775.88;;;20.72;74.54
20616;BME280;10467;42.338;23.552;2022-07-10T08:32:35;90774.28;;;20.30;89.60
20616;BME280;10467;42.338;23.552;2022-07-10T08:35:02;90780.47;;;19.93;98.96
20616;BME280;10467;42.338;23.552;2022-07-10T08:37:27;90775.53;;;19.39;100.00
20616;BME280;10467;42.338;23.552;2022-07-10T08:39:52;90786.56;;;19.27;100.00
20616;BME280;10467;42.338;23.552;2022-07-10T08:42:18;90783.81;;;19.23;100.00
20616;BME280;10467;42.338;23.552;2022-07-10T08:44:44;90782.06;;;19.38;100.00
20616;BME280;10467;42.338;23.552;2022-07-10T08:47:09;90772.97;;;19.76;98.77
20616;BME280;10467;42.338;23.552;2022-07-10T08:49:36;90774.03;;;19.71;97.03
20616;BME280;10467;42.338;23.552;2022-07-10T08:54:27;90776.31;;;20.03;99.27
20616;BME280;10467;42.338;23.552;2022-07-10T08:56:55;90772.19;;;20.50;93.93
20616;BME280;10467;42.338;23.552;2022-07-10T08:59:21;90779.22;;;21.06;87.58
20616;BME280;10467;42.338;23.552;2022-07-10T09:01:47;90770.94;;;21.39;82.87
20616;BME280;10467;42.338;23.552;2022-07-10T09:04:20;90783.66;;;22.08;77.47
20616;BME280;10467;42.338;23.552;2022-07-10T09:06:46;90772.75;;;21.94;73.70
20616;BME280;10467;42.338;23.552;2022-07-10T09:09:11;90777.06;;;22.05;71.98
20616;BME280;10467;42.338;23.552;2022-07-10T09:11:37;90778.25;;;22.15;74.23
20616;BME280;10467;42.338;23.552;2022-07-10T09:14:06;90775.13;;;22.06;73.18
20616;BME280;10467;42.338;23.552;2022-07-10T09:16:40;90782.19;;;22.28;71.70
20616;BME280;10467;42.338;23.552;2022-07-10T09:19:22;90783.59;;;22.04;71.71
20616;BME280;10467;42.338;23.552;2022-07-10T09:21:52;90777.13;;;22.27;68.77
20616;BME280;10467;42.338;23.552;2022-07-10T09:24:17;90778.50;;;21.85;74.01
20616;BME280;10467;42.338;23.552;2022-07-10T09:26:59;90783.41;;;21.62;82.77
20616;BME280;10467;42.338;23.552;2022-07-10T09:29:25;90781.91;;;21.64;80.50
20616;BME280;10467;42.338;23.552;2022-07-10T09:31:57;90774.09;;;21.48;82.55
20616;BME280;10467;42.338;23.552;2022-07-10T09:34:42;90772.72;;;21.17;88.07
20616;BME280;10467;42.338;23.552;2022-07-10T09:37:16;90774.78;;;21.31;91.20
20616;BME280;10467;42.338;23.552;2022-07-10T09:39:50;90779.38;;;21.27;85.98
20616;BME280;10467;42.338;23.552;2022-07-10T09:42:26;90779.31;;;21.20;89.28
20616;BME280;10467;42.338;23.552;2022-07-10T09:44:52;90779.22;;;21.09;85.24
20616;BME280;10467;42.338;23.552;2022-07-10T09:47:23;90789.25;;;21.05;85.21
20616;BME280;10467;42.338;23.552;2022-07-10T09:49:49;90790.50;;;21.18;82.36
20616;BME280;10467;42.338;23.552;2022-07-10T09:52:14;90778.03;;;21.03;87.17
20616;BME280;10467;42.338;23.552;2022-07-10T09:54:42;90779.94;;;20.99;87.90
20616;BME280;10467;42.338;23.552;2022-07-10T09:57:08;90783.78;;;21.49;84.75
20616;BME280;10467;42.338;23.552;2022-07-10T09:59:36;90776.22;;;21.91;79.79
20616;BME280;10467;42.338;23.552;2022-07-10T10:02:03;90775.88;;;22.03;78.37
20616;BME280;10467;42.338;23.552;2022-07-10T10:04:30;90770.72;;;21.76;74.56
20616;BME280;10467;42.338;23.552;2022-07-10T10:06:58;90779.84;;;22.30;72.87
20616;BME280;10467;42.338;23.552;2022-07-10T10:12:27;90778.44;;;28.81;49.43
20616;BME280;10467;42.338;23.552;2022-07-10T10:14:56;90779.97;;;31.25;45.32
20616;BME280;10467;42.338;23.552;2022-07-10T10:17:22;90775.63;;;31.11;43.61
20616;BME280;10467;42.338;23.552;2022-07-10T10:19:49;90784.66;;;29.99;44.09
20616;BME280;10467;42.338;23.552;2022-07-10T10:22:35;90778.63;;;27.95;48.13
20616;BME280;10467;42.338;23.552;2022-07-10T10:25:02;90773.59;;;28.33;47.08
20616;BME280;10467;42.338;23.552;2022-07-10T10:27:29;90775.47;;;27.96;47.96
20616;BME280;10467;42.338;23.552;2022-07-10T10:29:54;90762.91;;;28.58;48.73
20616;BME280;10467;42.338;23.552;2022-07-10T10:32:20;90764.19;;;28.70;46.99
20616;BME280;10467;42.338;23.552;2022-07-10T10:34:47;90765.69;;;27.52;47.38
20616;BME280;10467;42.338;23.552;2022-07-10T10:37:39;90758.59;;;26.54;50.52
20616;BME280;10467;42.338;23.552;2022-07-10T10:40:08;90758.72;;;26.13;51.27
20616;BME280;10467;42.338;23.552;2022-07-10T10:42:41;90751.63;;;27.30;49.52
20616;BME280;10467;42.338;23.552;2022-07-10T10:50:46;90759.81;;;31.15;42.73
20616;BME280;10467;42.338;23.552;2022-07-10T10:53:27;90759.69;;;32.83;38.68
20616;BME280;10467;42.338;23.552;2022-07-10T10:58:28;90748.72;;;32.70;38.15
20616;BME280;10467;42.338;23.552;2022-07-10T11:01:03;90737.38;;;30.79;41.35
20616;BME280;10467;42.338;23.552;2022-07-10T11:03:29;90742.28;;;30.17;42.43
20616;BME280;10467;42.338;23.552;2022-07-10T11:05:54;90735.66;;;29.85;43.27
20616;BME280;10467;42.338;23.552;2022-07-10T11:13:56;90732.91;;;30.43;42.07
20616;BME280;10467;42.338;23.552;2022-07-10T11:16:21;90723.91;;;30.55;41.30
20616;BME280;10467;42.338;23.552;2022-07-10T11:18:52;90722.94;;;31.98;39.72
20616;BME280;10467;42.338;23.552;2022-07-10T11:21:20;90724.16;;;31.97;40.25
20616;BME280;10467;42.338;23.552;2022-07-10T11:24:05;90720.84;;;32.24;40.65
20616;BME280;10467;42.338;23.552;2022-07-10T11:26:40;90721.09;;;31.48;41.73
20616;BME280;10467;42.338;23.552;2022-07-10T11:29:17;90721.66;;;31.17;41.42
20616;BME280;10467;42.338;23.552;2022-07-10T11:31:42;90717.47;;;29.30;43.44
20616;BME280;10467;42.338;23.552;2022-07-10T11:34:16;90711.56;;;28.46;46.31
20616;BME280;10467;42.338;23.552;2022-07-10T11:36:42;90708.59;;;30.16;43.48
20616;BME280;10467;42.338;23.552;2022-07-10T11:39:08;90709.25;;;28.05;46.91
20616;BME280;10467;42.338;23.552;2022-07-10T11:41:33;90709.94;;;27.03;47.90
20616;BME280;10467;42.338;23.552;2022-07-10T11:44:00;90710.09;;;26.38;49.20
20616;BME280;10467;42.338;23.552;2022-07-10T11:46:26;90712.34;;;25.45;51.10
20616;BME280;10467;42.338;23.552;2022-07-10T11:48:53;90717.06;;;24.92;51.31
20616;BME280;10467;42.338;23.552;2022-07-10T11:56:52;90722.63;;;22.89;57.71
20616;BME280;10467;42.338;23.552;2022-07-10T11:59:17;90723.75;;;22.41;58.30
20616;BME280;10467;42.338;23.552;2022-07-10T12:01:48;90717.91;;;22.32;59.57
20616;BME280;10467;42.338;23.552;2022-07-10T12:04:14;90715.50;;;22.02;62.16
20616;BME280;10467;42.338;23.552;2022-07-10T12:06:41;90720.13;;;22.02;63.14
20616;BME280;10467;42.338;23.552;2022-07-10T12:09:13;90719.44;;;22.19;64.09
20616;BME280;10467;42.338;23.552;2022-07-10T12:11:38;90719.44;;;22.19;63.49
20616;BME280;10467;42.338;23.552;2022-07-10T12:14:11;90722.41;;;21.89;66.22
20616;BME280;10467;42.338;23.552;2022-07-10T12:16:41;90717.44;;;21.98;66.90
20616;BME280;10467;42.338;23.552;2022-07-10T12:19:10;90710.50;;;22.08;65.99
20616;BME280;10467;42.338;23.552;2022-07-10T12:21:36;90720.22;;;22.37;66.17
20616;BME280;10467;42.338;23.552;2022-07-10T12:24:02;90721.03;;;22.84;64.88
20616;BME280;10467;42.338;23.552;2022-07-10T12:26:32;90717.88;;;24.37;59.90
20616;BME280;10467;42.338;23.552;2022-07-10T12:28:57;90729.03;;;25.09;58.42
20616;BME280;10467;42.338;23.552;2022-07-10T12:31:26;90721.19;;;26.24;55.32
20616;BME280;10467;42.338;23.552;2022-07-10T12:33:55;90731.59;;;27.13;52.71
20616;BME280;10467;42.338;23.552;2022-07-10T12:36:23;90717.13;;;28.03;49.59
20616;BME280;10467;42.338;23.552;2022-07-10T12:38:58;90712.78;;;28.61;49.18
20616;BME280;10467;42.338;23.552;2022-07-10T12:41:23;90704.63;;;29.88;47.08
20616;BME280;10467;42.338;23.552;2022-07-10T12:43:50;90713.03;;;29.19;46.20
20616;BME280;10467;42.338;23.552;2022-07-10T12:46:22;90712.59;;;29.54;47.03
20616;BME280;10467;42.338;23.552;2022-07-10T12:51:29;90712.22;;;29.68;44.76
20616;BME280;10467;42.338;23.552;2022-07-10T12:53:55;90704.50;;;29.63;45.26
20616;BME280;10467;42.338;23.552;2022-07-10T12:56:28;90711.09;;;31.88;41.33
20616;BME280;10467;42.338;23.552;2022-07-10T12:58:53;90698.06;;;31.54;41.88
20616;BME280;10467;42.338;23.552;2022-07-10T13:01:18;90696.81;;;31.68;41.18
20616;BME280;10467;42.338;23.552;2022-07-10T13:03:44;90696.75;;;31.59;40.29
20616;BME280;10467;42.338;23.552;2022-07-10T13:06:26;90702.09;;;31.15;41.05
20616;BME280;10467;42.338;23.552;2022-07-10T13:08:52;90691.00;;;29.39;44.48
20616;BME280;10467;42.338;23.552;2022-07-10T13:11:17;90695.34;;;29.69;44.04